Time;durP1;ratioP1;P1;durP2;ratioP2;P2;SDS_P1;SDS_P2;PMS_P1;PMS_P2;Temp;Humidity;BMP_temperature;BMP_pressure;BME280_temperature;BME280_humidity;BME280_pressure;Samples;Min_cycle;Max_cycle;Signal;HPM_P1;HPM_P2
2023/08/15 00:02:06;;;;;;;;;;;;;;;26.10;34.96;99590.34;5072868;28;19913;-76
2023/08/15 00:04:32;;;;;;;;;;;;;;;26.10;34.80;99589.56;5072774;28;20441;-77
2023/08/15 00:06:58;;;;;;;;;;;;;;;26.13;35.07;99594.41;5072731;28;19916;-78
2023/08/15 00:09:23;;;;;;;;;;;;;;;26.13;35.03;99597.91;5071757;28;19970;-78
2023/08/15 00:11:48;;;;;;;;;;;;;;;26.14;35.04;99591.41;5072663;28;19935;-77
2023/08/15 00:14:15;;;;;;;;;;;;;;;26.13;35.25;99584.38;5078374;28;19919;-77
2023/08/15 00:16:41;;;;;;;;;;;;;;;26.09;35.18;99582.53;5072440;28;20077;-79
2023/08/15 00:19:06;;;;;;;;;;;;;;;26.09;35.05;99577.09;5072648;28;20471;-77
2023/08/15 00:21:31;;;;;;;;;;;;;;;26.11;35.06;99585.75;5072549;28;19912;-78
2023/08/15 00:23:56;;;;;;;;;;;;;;;26.13;35.40;99580.88;5072450;28;20003;-78
2023/08/15 00:26:22;;;;;;;;;;;;;;;26.12;35.46;99585.47;5072343;28;20294;-79
2023/08/15 00:28:47;;;;;;;;;;;;;;;26.13;35.41;99578.16;5072258;28;20305;-77
2023/08/15 00:31:12;;;;;;;;;;;;;;;26.11;35.44;99572.22;5072129;28;20003;-76
2023/08/15 00:33:37;;;;;;;;;;;;;;;26.14;35.24;99577.06;5072145;28;19912;-76
2023/08/15 00:36:03;;;;;;;;;;;;;;;26.14;35.22;99583.28;5072248;28;19923;-78
2023/08/15 00:38:29;;;;;;;;;;;;;;;26.11;35.36;99573.03;5072294;28;19912;-78
2023/08/15 00:40:54;;;;;;;;;;;;;;;26.14;35.50;99577.88;5072176;28;19977;-77
2023/08/15 00:43:19;;;;;;;;;;;;;;;26.17;35.79;99585.44;5072583;28;20407;-78
2023/08/15 00:45:45;;;;;;;;;;;;;;;26.18;35.48;99580.84;5072658;28;19976;-78
2023/08/15 00:48:10;;;;;;;;;;;;;;;26.16;35.06;99566.78;5072408;28;19923;-77
2023/08/15 00:50:36;;;;;;;;;;;;;;;26.13;36.14;99567.34;5054568;28;19948;-77
2023/08/15 00:53:02;;;;;;;;;;;;;;;26.12;35.91;99568.44;5072263;28;19912;-78
2023/08/15 00:55:28;;;;;;;;;;;;;;;26.13;35.14;99567.34;5072460;28;19952;-77
2023/08/15 00:57:54;;;;;;;;;;;;;;;26.13;35.85;99564.63;5072186;28;19946;-77
2023/08/15 01:00:19;;;;;;;;;;;;;;;26.14;35.65;99571.66;5071681;28;20298;-77
2023/08/15 01:02:44;;;;;;;;;;;;;;;26.16;35.90;99564.06;5071708;28;20367;-77
2023/08/15 01:05:11;;;;;;;;;;;;;;;26.23;35.81;99575.41;5071697;28;19913;-78
2023/08/15 01:07:36;;;;;;;;;;;;;;;26.28;35.73;99568.06;5071792;28;19923;-78
2023/08/15 01:10:01;;;;;;;;;;;;;;;26.31;36.31;99563.97;5071917;28;19912;-78
2023/08/15 01:12:30;;;;;;;;;;;;;;;26.30;36.16;99567.78;5071953;28;19966;-78
2023/08/15 01:15:07;;;;;;;;;;;;;;;26.31;35.69;99555.03;5054034;28;20309;-77
2023/08/15 01:17:40;;;;;;;;;;;;;;;26.33;35.98;99564.53;5072008;28;19913;-77
2023/08/15 01:20:10;;;;;;;;;;;;;;;26.35;35.89;99567.78;5071686;28;19912;-78
2023/08/15 01:22:40;;;;;;;;;;;;;;;26.37;35.99;99571.00;5072566;28;20389;-78
2023/08/15 01:25:05;;;;;;;;;;;;;;;26.39;35.83;99571.53;5072043;28;19913;-78
2023/08/15 01:27:30;;;;;;;;;;;;;;;26.41;36.29;99569.34;5071955;28;20453;-78
2023/08/15 01:29:56;;;;;;;;;;;;;;;26.43;35.89;99567.19;5071584;28;19913;-77
2023/08/15 01:32:36;;;;;;;;;;;;;;;26.43;36.23;99567.19;5071539;28;19916;-78
2023/08/15 01:35:07;;;;;;;;;;;;;;;26.45;36.41;99575.81;5053376;28;19912;-79
2023/08/15 01:37:35;;;;;;;;;;;;;;;26.47;36.40;99567.41;5071415;28;19952;-78
2023/08/15 01:40:01;;;;;;;;;;;;;;;26.48;36.21;99560.91;5071273;28;19912;-78
2023/08/15 01:42:27;;;;;;;;;;;;;;;26.49;36.36;99562.53;5071277;28;20370;-77
2023/08/15 01:44:53;;;;;;;;;;;;;;;26.48;36.11;99556.31;5071496;28;19912;-79
2023/08/15 01:47:19;;;;;;;;;;;;;;;26.49;36.08;99560.63;5071352;28;20369;-78
2023/08/15 01:49:44;;;;;;;;;;;;;;;26.48;35.73;99558.19;5071400;28;19951;-77
2023/08/15 01:52:10;;;;;;;;;;;;;;;26.46;35.93;99557.69;5071416;28;20001;-78
2023/08/15 01:54:35;;;;;;;;;;;;;;;26.46;35.65;99561.19;5071503;28;19912;-77
2023/08/15 01:57:00;;;;;;;;;;;;;;;26.45;35.72;99562.28;5071234;28;19913;-76
2023/08/15 01:59:25;;;;;;;;;;;;;;;26.46;35.77;99561.19;5071068;28;19912;-76
2023/08/15 02:01:51;;;;;;;;;;;;;;;26.47;35.54;99560.09;5071476;28;20439;-78
2023/08/15 02:04:16;;;;;;;;;;;;;;;26.45;35.39;99562.28;5071171;28;19912;-78
2023/08/15 02:06:41;;;;;;;;;;;;;;;26.44;35.66;99552.53;5053046;28;19962;-79
2023/08/15 02:09:06;;;;;;;;;;;;;;;26.46;35.70;99558.50;5071145;28;20384;-78
2023/08/15 02:11:32;;;;;;;;;;;;;;;26.48;35.75;99555.50;5071207;28;19935;-78
2023/08/15 02:13:58;;;;;;;;;;;;;;;26.44;35.89;99551.75;5071525;28;19912;-78
2023/08/15 02:16:23;;;;;;;;;;;;;;;26.43;35.77;99550.94;5053649;28;19923;-76
2023/08/15 02:18:49;;;;;;;;;;;;;;;26.44;35.78;99560.66;5071854;28;19912;-78
2023/08/15 02:21:14;;;;;;;;;;;;;;;26.42;35.88;99560.13;5071372;28;19956;-76
2023/08/15 02:23:39;;;;;;;;;;;;;;;26.42;35.77;99556.63;5071758;28;19965;-78
2023/08/15 02:26:05;;;;;;;;;;;;;;;26.43;35.90;99566.38;5071298;28;20385;-77
2023/08/15 02:28:31;;;;;;;;;;;;;;;26.43;35.63;99558.25;5053280;28;19913;-78
2023/08/15 02:30:56;;;;;;;;;;;;;;;26.40;35.93;99565.03;5071080;28;19912;-78
2023/08/15 02:33:22;;;;;;;;;;;;;;;26.39;35.91;99565.31;5073476;28;19912;-78
2023/08/15 02:35:47;;;;;;;;;;;;;;;26.40;35.91;99561.50;5074562;28;19967;-78
2023/08/15 02:38:12;;;;;;;;;;;;;;;26.42;35.77;99568.25;5074448;28;19923;-78
2023/08/15 02:40:38;;;;;;;;;;;;;;;26.42;36.03;99575.56;5056418;28;19916;-77
2023/08/15 02:43:03;;;;;;;;;;;;;;;26.40;35.86;99564.22;5074495;28;19912;-77
2023/08/15 02:45:28;;;;;;;;;;;;;;;26.39;36.09;99558.00;5075269;28;19955;-77
2023/08/15 02:47:53;;;;;;;;;;;;;;;26.40;36.24;99561.50;5077174;28;19947;-77
2023/08/15 02:50:19;;;;;;;;;;;;;;;26.39;36.38;99562.59;5058241;28;19913;-78
2023/08/15 02:52:44;;;;;;;;;;;;;;;26.39;36.34;99565.31;5074542;28;19912;-77
2023/08/15 02:55:09;;;;;;;;;;;;;;;26.39;36.63;99565.31;5074439;28;20340;-77
2023/08/15 02:57:35;;;;;;;;;;;;;;;26.39;36.36;99566.13;5074382;28;19908;-78
2023/08/15 03:00:00;;;;;;;;;;;;;;;26.42;36.42;99562.03;5074307;28;20309;-77
2023/08/15 03:02:25;;;;;;;;;;;;;;;26.40;36.59;99562.31;5074501;28;19912;-77
2023/08/15 03:04:50;;;;;;;;;;;;;;;26.39;36.47;99562.59;5056512;28;19919;-77
2023/08/15 03:07:16;;;;;;;;;;;;;;;26.36;36.78;99558.56;5074481;28;20386;-77
2023/08/15 03:09:41;;;;;;;;;;;;;;;26.36;36.62;99560.47;5075730;28;19921;-78
2023/08/15 03:12:07;;;;;;;;;;;;;;;26.36;36.53;99574.81;5076906;28;19919;-78
2023/08/15 03:14:32;;;;;;;;;;;;;;;26.37;36.66;99568.31;5056372;28;19978;-77
2023/08/15 03:16:57;;;;;;;;;;;;;;;26.36;36.74;99563.97;5074146;28;20336;-78
2023/08/15 03:19:23;;;;;;;;;;;;;;;26.37;36.66;99568.31;5074175;28;19955;-77
2023/08/15 03:21:48;;;;;;;;;;;;;;;26.39;36.77;99562.59;5073998;28;19912;-78
2023/08/15 03:24:13;;;;;;;;;;;;;;;26.40;37.22;99566.94;5073845;28;19913;-77
2023/08/15 03:26:38;;;;;;;;;;;;;;;26.39;37.60;99574.25;5073838;28;19923;-77
2023/08/15 03:29:04;;;;;;;;;;;;;;;26.40;37.27;99569.63;5073509;28;19912;-77
2023/08/15 03:31:30;;;;;;;;;;;;;;;26.42;37.00;99568.25;5073685;28;19913;-77
2023/08/15 03:33:55;;;;;;;;;;;;;;;26.43;37.19;99571.78;5073241;28;19963;-78
2023/08/15 03:36:20;;;;;;;;;;;;;;;26.43;37.00;99575.28;5073246;28;19912;-78
2023/08/15 03:38:46;;;;;;;;;;;;;;;26.42;36.92;99575.56;5073229;28;19920;-77
2023/08/15 03:41:11;;;;;;;;;;;;;;;26.41;37.77;99580.19;5073192;28;20007;-78
2023/08/15 03:43:37;;;;;;;;;;;;;;;26.42;38.22;99575.56;5054784;28;19913;-77
2023/08/15 03:46:03;;;;;;;;;;;;;;;26.41;37.68;99574.78;5073170;28;19916;-78
2023/08/15 03:48:31;;;;;;;;;;;;;;;26.42;38.03;99575.56;5073160;28;19935;-77
2023/08/15 03:50:57;;;;;;;;;;;;;;;26.43;37.50;99574.50;5072965;28;19913;-77
2023/08/15 03:53:23;;;;;;;;;;;;;;;26.44;37.66;99574.22;5072852;28;20010;-77
2023/08/15 03:55:51;;;;;;;;;;;;;;;26.42;37.23;99575.56;5055091;28;19951;-78
2023/08/15 03:58:17;;;;;;;;;;;;;;;26.40;36.74;99566.94;5073434;28;20361;-78
2023/08/15 04:00:43;;;;;;;;;;;;;;;26.35;37.25;99575.09;5055110;28;19977;-77
2023/08/15 04:03:08;;;;;;;;;;;;;;;26.34;37.02;99562.63;5073378;28;19912;-78
2023/08/15 04:05:33;;;;;;;;;;;;;;;26.30;36.78;99570.47;5073116;28;19963;-78
2023/08/15 04:07:59;;;;;;;;;;;;;;;26.29;36.89;99569.66;5072922;28;19916;-77
2023/08/15 04:10:24;;;;;;;;;;;;;;;26.31;37.32;99569.41;5073100;28;19912;-78
2023/08/15 04:12:49;;;;;;;;;;;;;;;26.28;37.33;99564.53;5073028;28;20290;-78
2023/08/15 04:15:15;;;;;;;;;;;;;;;26.28;37.27;99570.75;5072940;28;19912;-78
2023/08/15 04:17:40;;;;;;;;;;;;;;;26.31;37.18;99571.28;5072950;28;19912;-78
2023/08/15 04:20:06;;;;;;;;;;;;;;;26.32;37.07;99565.59;5073035;28;20003;-78
2023/08/15 04:22:32;;;;;;;;;;;;;;;26.33;36.70;99571.84;5073050;28;19920;-78
2023/08/15 04:24:57;;;;;;;;;;;;;;;26.33;37.00;99569.16;5072802;28;19912;-77
2023/08/15 04:27:22;;;;;;;;;;;;;;;26.33;37.40;99567.25;5054747;28;20332;-78
2023/08/15 04:29:48;;;;;;;;;;;;;;;26.35;36.93;99573.19;5072952;28;20058;-78
2023/08/15 04:32:13;;;;;;;;;;;;;;;26.37;37.29;99568.31;5054972;28;20282;-78
2023/08/15 04:34:39;;;;;;;;;;;;;;;26.35;38.21;99570.47;5072444;28;19913;-77
2023/08/15 04:37:04;;;;;;;;;;;;;;;26.35;37.93;99569.66;5072666;28;20013;-78
2023/08/15 04:39:30;;;;;;;;;;;;;;;26.38;38.31;99566.41;5072633;28;20312;-77
2023/08/15 04:41:55;;;;;;;;;;;;;;;26.41;38.65;99563.94;5072582;28;20014;-77
2023/08/15 04:44:20;;;;;;;;;;;;;;;26.42;38.71;99570.97;5072476;28;19913;-78
2023/08/15 04:46:45;;;;;;;;;;;;;;;26.44;39.70;99560.66;5072466;28;19923;-78
2023/08/15 04:49:10;;;;;;;;;;;;;;;26.45;38.92;99564.19;5072326;28;19944;-78
2023/08/15 04:51:36;;;;;;;;;;;;;;;26.48;38.82;99569.84;5072264;28;20385;-77
2023/08/15 04:54:01;;;;;;;;;;;;;;;26.52;39.05;99564.66;5072374;28;19959;-78
2023/08/15 04:56:26;;;;;;;;;;;;;;;26.53;38.75;99563.59;5072076;28;20282;-78
2023/08/15 04:58:52;;;;;;;;;;;;;;;26.52;39.22;99560.06;5072331;28;20402;-77
2023/08/15 05:01:17;;;;;;;;;;;;;;;26.51;39.70;99566.56;5071858;28;19920;-77
2023/08/15 05:03:42;;;;;;;;;;;;;;;26.52;39.48;99561.97;5072307;28;20411;-77
2023/08/15 05:06:07;;;;;;;;;;;;;;;26.47;40.07;99560.09;5054147;28;19919;-77
2023/08/15 05:08:33;;;;;;;;;;;;;;;26.49;39.87;99568.75;5072162;28;19975;-77
2023/08/15 05:11:01;;;;;;;;;;;;;;;26.49;40.65;99571.47;5072083;28;20313;-77
2023/08/15 05:13:26;;;;;;;;;;;;;;;26.52;40.41;99570.91;5071988;28;19917;-77
2023/08/15 05:15:52;;;;;;;;;;;;;;;26.46;39.56;99577.44;5072266;28;20404;-78
2023/08/15 05:18:17;;;;;;;;;;;;;;;26.46;40.77;99580.16;5072286;28;20316;-77
2023/08/15 05:20:45;;;;;;;;;;;;;;;26.47;41.01;99578.25;5053988;28;20374;-78
2023/08/15 05:23:10;;;;;;;;;;;;;;;26.44;41.23;99584.22;5071854;28;19912;-78
2023/08/15 05:25:35;;;;;;;;;;;;;;;26.40;41.83;99583.16;5053723;28;20015;-77
2023/08/15 05:28:04;;;;;;;;;;;;;;;26.38;40.70;99579.94;5071742;28;19916;-78
2023/08/15 05:30:31;;;;;;;;;;;;;;;26.40;42.44;99578.56;5072269;28;19919;-77
2023/08/15 05:32:57;;;;;;;;;;;;;;;26.43;41.58;99580.72;5071815;28;19912;-76
2023/08/15 05:35:22;;;;;;;;;;;;;;;26.46;41.88;99579.34;5054070;28;20449;-78
2023/08/15 05:37:47;;;;;;;;;;;;;;;26.48;42.15;99590.69;5071854;28;20373;-77
2023/08/15 05:40:12;;;;;;;;;;;;;;;26.46;41.12;99580.16;5053928;28;19935;-78
2023/08/15 05:42:38;;;;;;;;;;;;;;;26.45;43.88;99581.25;5053992;28;19912;-78
2023/08/15 05:45:03;;;;;;;;;;;;;;;26.45;43.18;99578.53;5071450;28;19924;-78
2023/08/15 05:47:28;;;;;;;;;;;;;;;26.47;43.57;99583.66;5058335;28;19920;-77
2023/08/15 05:49:53;;;;;;;;;;;;;;;26.44;43.97;99585.03;5050745;28;20282;-77
2023/08/15 05:52:19;;;;;;;;;;;;;;;26.45;42.76;99585.84;5041953;28;19916;-78
2023/08/15 05:54:44;;;;;;;;;;;;;;;26.49;44.83;99589.59;5071095;28;19919;-77
2023/08/15 05:57:09;;;;;;;;;;;;;;;26.50;44.04;99583.91;5059467;28;20463;-76
2023/08/15 05:59:34;;;;;;;;;;;;;;;26.47;43.89;99587.19;5033334;28;20012;-76
2023/08/15 06:02:00;;;;;;;;;;;;;;;26.50;44.40;99583.91;5033494;28;20340;-78
2023/08/15 06:04:26;;;;;;;;;;;;;;;26.54;43.53;99579.53;5051435;28;19912;-77
2023/08/15 06:06:51;;;;;;;;;;;;;;;26.59;44.59;99576.00;5053682;28;19921;-76
2023/08/15 06:09:16;;;;;;;;;;;;;;;26.56;44.22;99574.66;5060439;28;20325;-76
2023/08/15 06:11:41;;;;;;;;;;;;;;;26.60;43.72;99581.13;5058189;28;19913;-77
2023/08/15 06:14:07;;;;;;;;;;;;;;;26.55;45.90;99573.03;5054825;28;19913;-77
2023/08/15 06:16:32;;;;;;;;;;;;;;;26.52;43.40;99576.31;5056081;28;20313;-76
2023/08/15 06:18:57;;;;;;;;;;;;;;;26.52;44.56;99573.59;5036779;28;20291;-77
2023/08/15 06:21:22;;;;;;;;;;;;;;;26.53;44.58;99564.38;5038057;28;19931;-79
2023/08/15 06:23:48;;;;;;;;;;;;;;;26.54;45.00;99560.59;5058491;28;20321;-78
2023/08/15 06:26:13;;;;;;;;;;;;;;;26.56;44.69;99566.53;5038560;28;20062;-78
2023/08/15 06:28:38;;;;;;;;;;;;;;;26.57;44.88;99570.06;5058091;28;19931;-79
2023/08/15 06:31:03;;;;;;;;;;;;;;;26.60;45.64;99570.28;5072820;28;20321;-78
2023/08/15 06:33:29;;;;;;;;;;;;;;;26.64;44.47;99569.72;5069845;28;20020;-77
2023/08/15 06:35:54;;;;;;;;;;;;;;;26.63;45.01;99570.81;5060285;28;19913;-78
2023/08/15 06:38:19;;;;;;;;;;;;;;;26.63;44.36;99577.03;5036746;28;19913;-78
2023/08/15 06:40:44;;;;;;;;;;;;;;;26.64;44.94;99569.72;5054688;28;19913;-78
2023/08/15 06:43:10;;;;;;;;;;;;;;;26.64;44.41;99578.66;5053119;28;19916;-79
2023/08/15 06:45:38;;;;;;;;;;;;;;;26.66;44.83;99575.66;5074791;28;19916;-76
2023/08/15 06:48:05;;;;;;;;;;;;;;;26.67;44.66;99580.00;5074422;28;19920;-79
2023/08/15 06:50:30;;;;;;;;;;;;;;;26.68;44.60;99578.91;5072561;28;19916;-78
2023/08/15 06:52:56;;;;;;;;;;;;;;;26.68;44.57;99576.19;5053103;28;20304;-78
2023/08/15 06:55:21;;;;;;;;;;;;;;;26.67;46.07;99583.50;5074665;28;19913;-79
2023/08/15 06:57:46;;;;;;;;;;;;;;;26.64;44.63;99575.94;5054700;28;19916;-78
2023/08/15 07:00:12;;;;;;;;;;;;;;;26.62;44.42;99583.56;5073817;28;19920;-78
2023/08/15 07:02:37;;;;;;;;;;;;;;;26.63;46.18;99573.53;5061737;28;20427;-78
2023/08/15 07:05:04;;;;;;;;;;;;;;;26.64;44.16;99580.56;5053786;28;20316;-78
2023/08/15 07:07:29;;;;;;;;;;;;;;;26.63;45.64;99578.94;5035845;28;19924;-79
2023/08/15 07:09:54;;;;;;;;;;;;;;;26.63;45.14;99570.81;5053717;28;19913;-78
2023/08/15 07:12:20;;;;;;;;;;;;;;;26.65;44.71;99576.75;5061820;28;19920;-78
2023/08/15 07:14:48;;;;;;;;;;;;;;;26.64;44.63;99577.84;5044887;28;19955;-78
2023/08/15 07:17:13;;;;;;;;;;;;;;;26.64;44.73;99575.94;5074047;28;19926;-78
2023/08/15 07:19:38;;;;;;;;;;;;;;;26.60;43.88;99573.00;5059088;28;19917;-78
2023/08/15 07:22:04;;;;;;;;;;;;;;;26.62;44.41;99571.91;5055471;28;20386;-76
2023/08/15 07:24:29;;;;;;;;;;;;;;;26.66;43.84;99562.94;5053822;28;19916;-77
2023/08/15 07:26:54;;;;;;;;;;;;;;;26.68;44.75;99568.88;5039053;28;20020;-78
2023/08/15 07:29:19;;;;;;;;;;;;;;;26.72;44.48;99569.94;5061945;28;19939;-78
2023/08/15 07:31:45;;;;;;;;;;;;;;;26.75;43.72;99566.66;5053325;28;19913;-77
2023/08/15 07:34:10;;;;;;;;;;;;;;;26.78;44.07;99562.59;5056399;28;20423;-78
2023/08/15 07:36:36;;;;;;;;;;;;;;;26.76;43.41;99567.50;5065685;28;19923;-78
2023/08/15 07:39:01;;;;;;;;;;;;;;;26.78;43.52;99571.53;5061698;28;19925;-79
2023/08/15 07:41:26;;;;;;;;;;;;;;;26.75;42.91;99577.50;5058036;28;19924;-77
2023/08/15 07:43:51;;;;;;;;;;;;;;;26.75;43.72;99568.56;5061541;28;19970;-77
2023/08/15 07:46:17;;;;;;;;;;;;;;;26.77;43.30;99569.09;5062887;28;19962;-79
2023/08/15 07:48:45;;;;;;;;;;;;;;;26.77;43.25;99567.22;5045072;28;19923;-78
2023/08/15 07:51:10;;;;;;;;;;;;;;;26.79;42.37;99570.44;5045674;28;20360;-76
2023/08/15 07:53:36;;;;;;;;;;;;;;;26.82;42.96;99572.59;5046070;28;19923;-77
2023/08/15 07:56:01;;;;;;;;;;;;;;;26.85;42.97;99568.50;5073229;28;19919;-77
2023/08/15 07:58:26;;;;;;;;;;;;;;;26.86;42.84;99561.97;5052813;28;19924;-78
2023/08/15 08:00:52;;;;;;;;;;;;;;;26.89;42.96;99558.69;5039925;28;19978;-78
2023/08/15 08:03:17;;;;;;;;;;;;;;;26.91;42.95;99561.94;5034951;28;20461;-78
2023/08/15 08:05:43;;;;;;;;;;;;;;;26.92;43.69;99556.22;5055720;28;19927;-78
2023/08/15 08:08:08;;;;;;;;;;;;;;;26.94;43.39;99552.44;5052484;28;20416;-78
2023/08/15 08:10:34;;;;;;;;;;;;;;;26.97;43.54;99554.56;5052461;28;19923;-79
2023/08/15 08:13:04;;;;;;;;;;;;;;;26.96;44.81;99555.66;5057145;28;19929;-78
2023/08/15 08:15:29;;;;;;;;;;;;;;;26.95;43.93;99564.88;5069868;28;19927;-78
2023/08/15 08:17:54;;;;;;;;;;;;;;;26.96;44.24;99556.47;5050646;28;19924;-78
2023/08/15 08:20:21;;;;;;;;;;;;;;;27.00;45.70;99554.84;5056579;28;19917;-78
2023/08/15 08:22:47;;;;;;;;;;;;;;;27.00;46.96;99557.53;5053777;28;19917;-79
2023/08/15 08:25:30;;;;;;;;;;;;;;;27.00;45.70;99548.59;5065816;28;19973;-76
2023/08/15 08:27:58;;;;;;;;;;;;;;;27.02;44.98;99549.13;5054790;28;19968;-76
2023/08/15 08:30:24;;;;;;;;;;;;;;;27.05;48.87;99552.06;5063638;28;19921;-77
2023/08/15 08:32:52;;;;;;;;;;;;;;;27.05;46.25;99546.66;5069116;28;19912;-77
2023/08/15 08:35:18;;;;;;;;;;;;;;;27.08;46.46;99550.69;5070652;28;20312;-77
2023/08/15 08:37:44;;;;;;;;;;;;;;;27.12;48.12;99546.31;5054393;28;19909;-76
2023/08/15 08:40:11;;;;;;;;;;;;;;;27.11;48.10;99542.00;5068634;28;19921;-78
2023/08/15 08:42:37;;;;;;;;;;;;;;;27.11;46.78;99550.94;5060426;28;19920;-78
2023/08/15 08:45:02;;;;;;;;;;;;;;;27.12;44.18;99536.28;5073239;28;19920;-77
2023/08/15 08:47:30;;;;;;;;;;;;;;;27.12;45.97;99539.00;5071850;28;19960;-78
2023/08/15 08:49:57;;;;;;;;;;;;;;;27.17;47.75;99538.13;5067591;28;20003;-78
2023/08/15 08:52:23;;;;;;;;;;;;;;;27.19;47.34;99536.75;5058783;28;19912;-77
2023/08/15 08:54:51;;;;;;;;;;;;;;;27.22;47.01;99535.38;5041957;28;20366;-79
2023/08/15 08:57:17;;;;;;;;;;;;;;;27.29;48.31;99535.03;5066669;28;19917;-78
2023/08/15 08:59:43;;;;;;;;;;;;;;;27.29;47.19;99532.31;5070905;28;19920;-77
2023/08/15 09:02:10;;;;;;;;;;;;;;;27.26;48.61;99525.56;5072169;28;19917;-77
2023/08/15 09:04:35;;;;;;;;;;;;;;;27.28;47.05;99530.69;5054293;28;19995;-76
2023/08/15 09:07:01;;;;;;;;;;;;;;;27.28;45.60;99526.09;5063745;28;20004;-79
2023/08/15 09:09:26;;;;;;;;;;;;;;;27.31;46.41;99527.41;5073658;28;19917;-78
2023/08/15 09:11:53;;;;;;;;;;;;;;;27.28;46.42;99530.69;5056412;28;19913;-77
2023/08/15 09:14:18;;;;;;;;;;;;;;;27.26;46.67;99532.88;5045148;28;19923;-78
2023/08/15 09:16:47;;;;;;;;;;;;;;;27.23;46.86;99526.94;5044745;28;19924;-78
2023/08/15 09:19:13;;;;;;;;;;;;;;;27.25;46.22;99529.38;5055810;28;20000;-78
2023/08/15 09:21:39;;;;;;;;;;;;;;;27.25;45.94;99523.94;5033899;28;19955;-78
2023/08/15 09:24:04;;;;;;;;;;;;;;;27.25;45.41;99534.78;5052600;28;19921;-77
2023/08/15 09:26:37;;;;;;;;;;;;;;;27.22;44.53;99525.34;5067812;28;19924;-77
2023/08/15 09:29:03;;;;;;;;;;;;;;;27.21;44.43;99531.84;5059846;28;19916;-78
2023/08/15 09:31:29;;;;;;;;;;;;;;;27.23;43.71;99526.94;5051589;28;19965;-79
2023/08/15 09:33:54;;;;;;;;;;;;;;;27.25;44.00;99525.84;5043328;28;19916;-78
2023/08/15 09:36:22;;;;;;;;;;;;;;;27.18;43.37;99526.19;5059081;28;19913;-77
2023/08/15 09:38:50;;;;;;;;;;;;;;;27.18;43.76;99520.78;5055868;28;19969;-77
2023/08/15 09:41:15;;;;;;;;;;;;;;;27.19;43.80;99520.47;5038631;28;19915;-78
2023/08/15 09:43:51;;;;;;;;;;;;;;;27.20;43.46;99521.28;5075426;28;19912;-78
2023/08/15 09:46:19;;;;;;;;;;;;;;;27.20;43.27;99513.16;5065215;28;19959;-79
2023/08/15 09:48:48;;;;;;;;;;;;;;;27.21;43.16;99517.47;5056059;28;19920;-78
2023/08/15 09:51:15;;;;;;;;;;;;;;;27.21;43.22;99517.47;5069363;28;20418;-77
2023/08/15 09:53:44;;;;;;;;;;;;;;;27.15;43.46;99514.03;5064382;28;19920;-78
2023/08/15 09:56:10;;;;;;;;;;;;;;;27.16;43.78;99518.34;5053395;28;19917;-78
2023/08/15 09:58:35;;;;;;;;;;;;;;;27.17;43.36;99517.25;5055168;28;19917;-77
2023/08/15 10:01:02;;;;;;;;;;;;;;;27.21;43.75;99515.59;5052391;28;20307;-77
2023/08/15 10:03:40;;;;;;;;;;;;;;;27.23;43.73;99513.41;5056336;28;20003;-77
2023/08/15 10:06:07;;;;;;;;;;;;;;;27.24;43.90;99514.19;5068597;28;20275;-78
2023/08/15 10:08:34;;;;;;;;;;;;;;;27.27;44.10;99515.53;5050743;28;19921;-77
2023/08/15 10:10:59;;;;;;;;;;;;;;;27.29;44.28;99513.34;5074286;28;19973;-76
2023/08/15 10:13:30;;;;;;;;;;;;;;;27.26;44.27;99517.44;5073966;28;19912;-77
2023/08/15 10:15:56;;;;;;;;;;;;;;;27.27;43.77;99516.34;5052462;28;19917;-76
2023/08/15 10:18:21;;;;;;;;;;;;;;;27.28;44.86;99517.13;5050374;28;19923;-78
2023/08/15 10:20:56;;;;;;;;;;;;;;;27.28;44.42;99515.25;5070281;28;20041;-76
2023/08/15 10:23:26;;;;;;;;;;;;;;;27.25;44.80;99515.81;5072783;28;19917;-78
2023/08/15 10:25:52;;;;;;;;;;;;;;;27.22;43.96;99514.50;5070432;28;19974;-78
2023/08/15 10:28:18;;;;;;;;;;;;;;;27.22;44.55;99519.09;5039969;28;19931;-77
2023/08/15 10:30:47;;;;;;;;;;;;;;;27.20;44.14;99513.16;5064061;28;19939;-78
2023/08/15 10:33:14;;;;;;;;;;;;;;;27.20;44.64;99511.25;5037165;28;19912;-78
2023/08/15 10:35:50;;;;;;;;;;;;;;;27.20;44.81;99513.97;5072599;28;20389;-77
2023/08/15 10:38:16;;;;;;;;;;;;;;;27.19;44.91;99511.53;5054309;28;20000;-78
2023/08/15 10:40:43;;;;;;;;;;;;;;;27.21;44.08;99512.06;5063811;28;19924;-77
2023/08/15 10:43:10;;;;;;;;;;;;;;;27.14;44.21;99514.31;5073383;28;19916;-77
2023/08/15 10:45:46;;;;;;;;;;;;;;;27.14;44.80;99517.03;5068606;28;19917;-78
2023/08/15 10:48:12;;;;;;;;;;;;;;;27.14;44.59;99508.88;5063928;28;20344;-78
2023/08/15 10:50:43;;;;;;;;;;;;;;;27.15;44.10;99507.78;5057015;28;20008;-77
2023/08/15 10:53:08;;;;;;;;;;;;;;;27.13;44.93;99504.56;5052868;28;19920;-78
2023/08/15 10:55:35;;;;;;;;;;;;;;;27.17;45.20;99514.53;5071899;28;20359;-78
2023/08/15 10:58:05;;;;;;;;;;;;;;;27.21;44.71;99515.59;5053517;28;20386;-78
2023/08/15 11:00:31;;;;;;;;;;;;;;;27.27;45.61;99513.63;5054972;28;19925;-78
2023/08/15 11:02:57;;;;;;;;;;;;;;;27.34;43.94;99516.78;5035969;28;20381;-78
2023/08/15 11:05:22;;;;;;;;;;;;;;;27.35;44.60;99510.28;5055483;28;19916;-78
2023/08/15 11:07:47;;;;;;;;;;;;;;;27.43;44.46;99503.41;5073627;28;20425;-78
2023/08/15 11:10:13;;;;;;;;;;;;;;;27.50;45.04;99504.69;5055753;28;19952;-78
2023/08/15 11:12:45;;;;;;;;;;;;;;;27.56;44.31;99496.50;5048677;28;19944;-79
2023/08/15 11:15:10;;;;;;;;;;;;;;;27.55;44.58;99501.13;5044030;28;19994;-79
2023/08/15 11:17:35;;;;;;;;;;;;;;;27.50;45.22;99499.28;5054625;28;20413;-78
2023/08/15 11:20:01;;;;;;;;;;;;;;;27.50;45.02;99501.97;5058017;28;19944;-78
2023/08/15 11:22:26;;;;;;;;;;;;;;;27.49;45.41;99500.34;5066473;28;19916;-77
2023/08/15 11:24:51;;;;;;;;;;;;;;;27.57;44.43;99493.50;5057466;28;19916;-76
2023/08/15 11:27:16;;;;;;;;;;;;;;;27.66;45.08;99494.47;5042529;28;19921;-76
2023/08/15 11:29:42;;;;;;;;;;;;;;;27.70;45.79;99489.28;5068082;28;19921;-78
2023/08/15 11:32:08;;;;;;;;;;;;;;;27.78;44.89;99497.56;5053282;28;19909;-78
2023/08/15 11:34:36;;;;;;;;;;;;;;;27.92;44.32;99488.69;5062731;28;19916;-77
2023/08/15 11:37:01;;;;;;;;;;;;;;;28.06;45.61;99482.25;5068495;28;20479;-77
2023/08/15 11:39:27;;;;;;;;;;;;;;;28.26;44.45;99483.09;5063403;28;19917;-77
2023/08/15 11:41:52;;;;;;;;;;;;;;;28.42;44.32;99487.16;5071904;28;19916;-78
2023/08/15 11:44:21;;;;;;;;;;;;;;;28.48;44.65;99489.50;5070035;28;19963;-77
2023/08/15 11:46:46;;;;;;;;;;;;;;;28.49;44.23;99482.16;5066192;28;19994;-77
2023/08/15 11:49:18;;;;;;;;;;;;;;;28.54;43.61;99483.97;5053519;28;20317;-76
2023/08/15 11:51:43;;;;;;;;;;;;;;;28.58;44.19;99482.28;5065239;28;20404;-78
2023/08/15 11:54:09;;;;;;;;;;;;;;;28.61;44.21;99487.13;5064959;28;19916;-77
2023/08/15 11:56:50;;;;;;;;;;;;;;;28.66;44.17;99476.97;5064323;28;20459;-78
2023/08/15 11:59:18;;;;;;;;;;;;;;;28.86;43.16;99472.28;5066709;28;19990;-78
2023/08/15 12:01:43;;;;;;;;;;;;;;;29.25;43.06;99474.56;5065037;28;19921;-76
2023/08/15 12:04:11;;;;;;;;;;;;;;;29.55;42.53;99464.97;5051943;28;19977;-78
2023/08/15 12:06:36;;;;;;;;;;;;;;;29.81;41.90;99468.78;5061374;28;19925;-77
2023/08/15 12:09:02;;;;;;;;;;;;;;;29.92;41.48;99466.63;5058925;28;19925;-78
2023/08/15 12:11:29;;;;;;;;;;;;;;;30.01;41.44;99464.78;5080766;28;20520;-76
2023/08/15 12:13:54;;;;;;;;;;;;;;;30.04;41.50;99461.47;5044292;28;20321;-78
2023/08/15 12:16:19;;;;;;;;;;;;;;;30.40;41.32;99466.84;5053797;28;20003;-75
2023/08/15 12:18:44;;;;;;;;;;;;;;;30.86;40.19;99466.50;5071989;28;19923;-78
2023/08/15 12:21:11;;;;;;;;;;;;;;;31.17;39.15;99460.25;5066423;28;19923;-78
2023/08/15 12:23:36;;;;;;;;;;;;;;;31.25;39.22;99459.50;5053025;28;19923;-78
2023/08/15 12:26:02;;;;;;;;;;;;;;;31.34;39.11;99456.78;5047716;28;19917;-77
2023/08/15 12:28:29;;;;;;;;;;;;;;;31.61;38.79;99464.69;5053411;28;19926;-77
2023/08/15 12:30:54;;;;;;;;;;;;;;;31.58;38.72;99455.22;5055439;28;19964;-77
2023/08/15 12:33:19;;;;;;;;;;;;;;;31.51;38.29;99443.97;5054913;28;19967;-76
2023/08/15 12:35:44;;;;;;;;;;;;;;;31.65;38.76;99446.56;5061947;28;20277;-79
2023/08/15 12:38:10;;;;;;;;;;;;;;;31.51;38.51;99443.97;5058809;28;19917;-78
2023/08/15 12:40:35;;;;;;;;;;;;;;;31.49;38.64;99438.03;5050250;28;19917;-76
2023/08/15 12:43:01;;;;;;;;;;;;;;;31.36;38.84;99444.44;5062735;28;19917;-76